MiSS B. — WDC4192 — position and weather

sailwx.info

Track history (hours):
 
Tides and Currents Weather Stations Pressure Air Temp Water Temp Dewpoint Dewpoint Depression Visibility Wind Speed Wind Dir Waves Ship Positions

MiSS B.

Owner: B & L TOWING, INC., HARVEY, LA. More information available from US FCC via Universal Licensing System and Coast Guard Vessel Documentation Center.

Last reported at 2015-Dec-03 18:31 UTC. Time now 2016-Feb-12 05:38 UTC.
Position N 29°35' W 090°37'.
Warning: this ship's position is months out of date.

; draft 1.5 m.

Type: Towing. MMSI: 367020590.

Date/timePositionNaut miles runAvg speedWind from/ knotsBaromVisibWave heightAir tempDewpointWater temp
2015-Dec-03 18:31N 29°35' W 090°37'5 5.0
2015-Dec-03 17:33N 29°37' W 090°42'6 5.0
2015-Dec-03 16:23N 29°32' W 090°46'2 0.1
2015-Dec-03 00:05N 29°32' W 090°48'3 5.6
2015-Dec-02 23:33N 29°33' W 090°45'9 0.3
2015-Dec-01 21:09N 29°35' W 090°35'3 4.4
2015-Dec-01 20:33N 29°35' W 090°38'4 3.9
2015-Dec-01 19:33N 29°36' W 090°43'4 4.1
2015-Dec-01 18:33N 29°33' W 090°45'2 0.1
2015-Dec-01 02:04N 29°32' W 090°48'3 5.7
2015-Dec-01 01:33N 29°34' W 090°45'  
Track history (hours):
 
Tides and Currents Weather Stations Pressure Air Temp Water Temp Dewpoint Dewpoint Depression Visibility Wind Speed Wind Dir Waves Ship Positions

MiSS B.

Owner: B & L TOWING, INC., HARVEY, LA. More information available from US FCC via Universal Licensing System and Coast Guard Vessel Documentation Center.

Last reported at 2015-Dec-03 18:31 UTC. Time now 2016-Feb-12 05:38 UTC.
Position N 29°35' W 090°37'.
Warning: this ship's position is months out of date.

; draft 1.5 m.

Type: Towing. MMSI: 367020590.

Date/timePositionNaut miles runAvg speedWind from/ knotsBaromVisibWave heightAir tempDewpointWater temp
2015-Dec-03 18:31N 29°35' W 090°37'5 5.0
2015-Dec-03 17:33N 29°37' W 090°42'6 5.0
2015-Dec-03 16:23N 29°32' W 090°46'2 0.1
2015-Dec-03 00:05N 29°32' W 090°48'3 5.6
2015-Dec-02 23:33N 29°33' W 090°45'9 0.3
2015-Dec-01 21:09N 29°35' W 090°35'3 4.4
2015-Dec-01 20:33N 29°35' W 090°38'4 3.9
2015-Dec-01 19:33N 29°36' W 090°43'4 4.1
2015-Dec-01 18:33N 29°33' W 090°45'2 0.1
2015-Dec-01 02:04N 29°32' W 090°48'3 5.7
2015-Dec-01 01:33N 29°34' W 090°45'  

Dump ship's entire track history